Airfield :
LOGIN :

Register | Disclaimer

   EN    FR    IT 

 










Legend :    VFR   Marginal VFR   IFR   Intensive IFR   Very Intensive IFR
Visi :
Ceiling :
>= 8 km
>= 3000ft
5 to 8 km
1000 to 3000 ft
1500m to 5 km
500 to 1000 ft
800 to 1500m
200 to 500 ft
< 800m
< 200 ft
Symbols :   Thunderstorms  Fog  Heavy snow  Heavy precipitations  Wind > 20 kt
SIGMETs :     Misc.  Thunderstorms  Icing  Turbulence  Mountain Waves  Volcanic Ashes






- Airport Elevation : 183 ft
- IATA code : HAJ


EDDV - Hanover/Langenhagen Int.

CURRENT METAR :
  • 082220Z 10007KT 9999 SCT030 01/01 Q1002

EXPIRED METARs :
  • 082150Z 09007KT 9999 FEW032 01/00 Q1002
  • 082120Z 08005KT 9999 FEW030 01/00 Q1002
  • 082050Z 12004KT 9999 FEW032 02/01 Q1002 NOSIG
  • 082020Z 11003KT 090V150 CAVOK 02/01 Q1002 NOSIG
  • 081950Z 11005KT CAVOK 03/01 Q1002 NOSIG

TAF TAF EDDV
Valid from the 08 at 18:00 until the 09 at 18:00 UTC


081700Z 0818/0918 12005KT 9999 FEW035
PROB30
TEMPO 0904/0909 3000 BR BKN008
BECMG 0916/0918 18005KT



MET'MAP, your aeronautical weather chart ! - Copyright ORBIFLY December 2007 - Disclaimer

ORBIFLY MET'MAP TEAM :

Programming & Development : Alexandra Zaïnal
Concept & original design : Baudouin d'Aumeries
Assistance for programming : Marc-Olivier Méhu
Technical & hardware support : Manuel Goepfert

Contact : metmap@orbifly.com




SOURCES & CREDITS :

   NOAA